sensor_id;sensor_type;location;lat;lon;timestamp;P1;durP1;ratioP1;P2;durP2;ratioP2
15921;SDS011;8060;50.948;3.146;2022-09-14T08:00:26;31.10;;;24.87;;
15921;SDS011;8060;50.948;3.146;2022-09-14T08:02:54;34.77;;;25.47;;
15921;SDS011;8060;50.948;3.146;2022-09-14T08:05:23;30.90;;;25.60;;
15921;SDS011;8060;50.948;3.146;2022-09-14T08:07:52;31.53;;;24.93;;
15921;SDS011;8060;50.948;3.146;2022-09-14T08:10:20;35.80;;;26.47;;
15921;SDS011;8060;50.948;3.146;2022-09-14T08:12:49;34.77;;;25.87;;
15921;SDS011;8060;50.948;3.146;2022-09-14T08:15:18;33.57;;;25.83;;
15921;SDS011;8060;50.948;3.146;2022-09-14T08:17:52;35.70;;;26.93;;
15921;SDS011;8060;50.948;3.146;2022-09-14T08:20:20;34.87;;;25.90;;
15921;SDS011;8060;50.948;3.146;2022-09-14T08:22:48;31.07;;;25.17;;
15921;SDS011;8060;50.948;3.146;2022-09-14T08:25:16;33.00;;;25.33;;
15921;SDS011;8060;50.948;3.146;2022-09-14T08:27:44;34.60;;;26.07;;
15921;SDS011;8060;50.948;3.146;2022-09-14T08:30:12;29.63;;;25.60;;
15921;SDS011;8060;50.948;3.146;2022-09-14T08:32:41;30.23;;;24.73;;
15921;SDS011;8060;50.948;3.146;2022-09-14T08:35:10;27.87;;;24.63;;
15921;SDS011;8060;50.948;3.146;2022-09-14T08:37:38;27.87;;;24.87;;
15921;SDS011;8060;50.948;3.146;2022-09-14T08:40:06;29.03;;;25.27;;
15921;SDS011;8060;50.948;3.146;2022-09-14T08:42:37;26.37;;;23.50;;
15921;SDS011;8060;50.948;3.146;2022-09-14T08:45:07;26.47;;;23.73;;
15921;SDS011;8060;50.948;3.146;2022-09-14T08:47:40;25.23;;;21.80;;
15921;SDS011;8060;50.948;3.146;2022-09-14T08:50:11;23.97;;;21.40;;
15921;SDS011;8060;50.948;3.146;2022-09-14T08:52:43;24.73;;;21.07;;
15921;SDS011;8060;50.948;3.146;2022-09-14T08:55:18;23.17;;;20.80;;
15921;SDS011;8060;50.948;3.146;2022-09-14T08:57:55;21.70;;;19.40;;
15921;SDS011;8060;50.948;3.146;2022-09-14T09:00:30;21.67;;;19.37;;
15921;SDS011;8060;50.948;3.146;2022-09-14T09:06:08;21.53;;;18.03;;
15921;SDS011;8060;50.948;3.146;2022-09-14T09:08:43;21.77;;;19.57;;
15921;SDS011;8060;50.948;3.146;2022-09-14T09:11:20;21.70;;;19.47;;
15921;SDS011;8060;50.948;3.146;2022-09-14T09:13:51;21.33;;;19.10;;
15921;SDS011;8060;50.948;3.146;2022-09-14T09:16:21;20.57;;;18.50;;
15921;SDS011;8060;50.948;3.146;2022-09-14T09:18:52;20.00;;;18.00;;
15921;SDS011;8060;50.948;3.146;2022-09-14T09:21:26;19.83;;;17.93;;
15921;SDS011;8060;50.948;3.146;2022-09-14T09:23:57;20.10;;;18.10;;
15921;SDS011;8060;50.948;3.146;2022-09-14T09:26:42;21.10;;;19.00;;
15921;SDS011;8060;50.948;3.146;2022-09-14T09:29:10;21.90;;;19.60;;
15921;SDS011;8060;50.948;3.146;2022-09-14T09:31:39;21.53;;;19.30;;
15921;SDS011;8060;50.948;3.146;2022-09-14T09:34:10;22.20;;;19.80;;
15921;SDS011;8060;50.948;3.146;2022-09-14T09:36:44;20.90;;;18.70;;
15921;SDS011;8060;50.948;3.146;2022-09-14T09:39:13;20.67;;;18.60;;
15921;SDS011;8060;50.948;3.146;2022-09-14T09:41:44;20.07;;;18.17;;
15921;SDS011;8060;50.948;3.146;2022-09-14T09:44:15;22.00;;;19.80;;
15921;SDS011;8060;50.948;3.146;2022-09-14T09:46:44;21.20;;;19.00;;
15921;SDS011;8060;50.948;3.146;2022-09-14T09:49:15;19.60;;;17.70;;
15921;SDS011;8060;50.948;3.146;2022-09-14T09:51:48;19.20;;;17.20;;
15921;SDS011;8060;50.948;3.146;2022-09-14T09:54:20;18.37;;;16.67;;
15921;SDS011;8060;50.948;3.146;2022-09-14T09:56:51;18.90;;;17.10;;
15921;SDS011;8060;50.948;3.146;2022-09-14T09:59:25;18.73;;;16.80;;
15921;SDS011;8060;50.948;3.146;2022-09-14T10:01:56;17.20;;;15.60;;
15921;SDS011;8060;50.948;3.146;2022-09-14T10:05:00;19.53;;;16.93;;
15921;SDS011;8060;50.948;3.146;2022-09-14T10:07:31;19.17;;;17.47;;
15921;SDS011;8060;50.948;3.146;2022-09-14T10:10:02;18.63;;;16.93;;
15921;SDS011;8060;50.948;3.146;2022-09-14T10:12:32;19.90;;;17.90;;
15921;SDS011;8060;50.948;3.146;2022-09-14T10:15:06;19.73;;;17.83;;
15921;SDS011;8060;50.948;3.146;2022-09-14T10:17:55;19.60;;;17.73;;
15921;SDS011;8060;50.948;3.146;2022-09-14T10:20:33;20.43;;;18.33;;
15921;SDS011;8060;50.948;3.146;2022-09-14T10:23:20;20.00;;;17.97;;
15921;SDS011;8060;50.948;3.146;2022-09-14T10:25:51;21.53;;;18.87;;
15921;SDS011;8060;50.948;3.146;2022-09-14T10:28:21;20.23;;;18.27;;
15921;SDS011;8060;50.948;3.146;2022-09-14T10:30:54;20.87;;;18.87;;
15921;SDS011;8060;50.948;3.146;2022-09-14T10:33:27;20.60;;;18.50;;
15921;SDS011;8060;50.948;3.146;2022-09-14T10:35:56;20.47;;;18.57;;
15921;SDS011;8060;50.948;3.146;2022-09-14T10:38:33;21.30;;;19.30;;
15921;SDS011;8060;50.948;3.146;2022-09-14T10:41:09;22.37;;;20.27;;
15921;SDS011;8060;50.948;3.146;2022-09-14T10:43:55;22.67;;;20.47;;
15921;SDS011;8060;50.948;3.146;2022-09-14T10:46:48;21.03;;;19.13;;
15921;SDS011;8060;50.948;3.146;2022-09-14T10:49:37;21.53;;;19.53;;
15921;SDS011;8060;50.948;3.146;2022-09-14T10:52:18;22.23;;;20.20;;
15921;SDS011;8060;50.948;3.146;2022-09-14T10:54:56;22.63;;;20.40;;
15921;SDS011;8060;50.948;3.146;2022-09-14T10:57:36;24.33;;;21.93;;
15921;SDS011;8060;50.948;3.146;2022-09-14T11:00:14;25.27;;;22.57;;
15921;SDS011;8060;50.948;3.146;2022-09-14T11:02:51;24.10;;;21.80;;
15921;SDS011;8060;50.948;3.146;2022-09-14T11:05:40;24.50;;;22.00;;
15921;SDS011;8060;50.948;3.146;2022-09-14T11:08:16;24.20;;;21.70;;
15921;SDS011;8060;50.948;3.146;2022-09-14T11:10:59;25.43;;;22.90;;
15921;SDS011;8060;50.948;3.146;2022-09-14T11:13:48;24.80;;;22.20;;
15921;SDS011;8060;50.948;3.146;2022-09-14T11:16:31;23.63;;;21.00;;
15921;SDS011;8060;50.948;3.146;2022-09-14T11:19:25;24.17;;;21.77;;
15921;SDS011;8060;50.948;3.146;2022-09-14T11:22:02;21.73;;;19.73;;
15921;SDS011;8060;50.948;3.146;2022-09-14T11:24:36;21.90;;;19.77;;
15921;SDS011;8060;50.948;3.146;2022-09-14T11:27:09;19.07;;;17.17;;
15921;SDS011;8060;50.948;3.146;2022-09-14T11:29:51;17.27;;;15.63;;
15921;SDS011;8060;50.948;3.146;2022-09-14T11:32:25;17.80;;;15.90;;
15921;SDS011;8060;50.948;3.146;2022-09-14T11:34:58;17.73;;;16.03;;
15921;SDS011;8060;50.948;3.146;2022-09-14T11:37:30;16.40;;;14.93;;
15921;SDS011;8060;50.948;3.146;2022-09-14T11:40:14;16.90;;;15.30;;
15921;SDS011;8060;50.948;3.146;2022-09-14T11:42:50;17.70;;;16.00;;
15921;SDS011;8060;50.948;3.146;2022-09-14T11:45:26;21.17;;;15.80;;
15921;SDS011;8060;50.948;3.146;2022-09-14T11:47:59;17.10;;;15.30;;
15921;SDS011;8060;50.948;3.146;2022-09-14T11:50:56;16.93;;;15.33;;
15921;SDS011;8060;50.948;3.146;2022-09-14T11:53:30;16.30;;;14.73;;
15921;SDS011;8060;50.948;3.146;2022-09-14T11:55:59;17.87;;;16.17;;
15921;SDS011;8060;50.948;3.146;2022-09-14T11:58:29;17.77;;;16.07;;
15921;SDS011;8060;50.948;3.146;2022-09-14T12:01:02;17.87;;;15.97;;
15921;SDS011;8060;50.948;3.146;2022-09-14T12:03:45;17.40;;;15.80;;
15921;SDS011;8060;50.948;3.146;2022-09-14T12:12:31;15.50;;;14.03;;
15921;SDS011;8060;50.948;3.146;2022-09-14T12:15:10;15.67;;;14.27;;
15921;SDS011;8060;50.948;3.146;2022-09-14T12:17:41;14.90;;;13.60;;
15921;SDS011;8060;50.948;3.146;2022-09-14T12:23:11;15.43;;;14.00;;
15921;SDS011;8060;50.948;3.146;2022-09-14T12:25:52;15.80;;;14.00;;
15921;SDS011;8060;50.948;3.146;2022-09-14T12:28:27;16.27;;;14.57;;
15921;SDS011;8060;50.948;3.146;2022-09-14T12:31:27;15.60;;;14.20;;
15921;SDS011;8060;50.948;3.146;2022-09-14T12:34:12;17.93;;;12.77;;
15921;SDS011;8060;50.948;3.146;2022-09-14T12:36:56;14.83;;;13.43;;
15921;SDS011;8060;50.948;3.146;2022-09-14T12:39:36;14.70;;;13.30;;
15921;SDS011;8060;50.948;3.146;2022-09-14T12:44:55;15.43;;;14.00;;
15921;SDS011;8060;50.948;3.146;2022-09-14T12:47:49;17.30;;;15.70;;
15921;SDS011;8060;50.948;3.146;2022-09-14T12:50:18;18.27;;;16.37;;
15921;SDS011;8060;50.948;3.146;2022-09-14T12:52:51;18.50;;;16.70;;
15921;SDS011;8060;50.948;3.146;2022-09-14T12:55:46;17.53;;;15.83;;
15921;SDS011;8060;50.948;3.146;2022-09-14T12:58:30;17.63;;;15.83;;
15921;SDS011;8060;50.948;3.146;2022-09-14T13:01:16;17.43;;;15.83;;
15921;SDS011;8060;50.948;3.146;2022-09-14T13:04:10;16.67;;;15.07;;
15921;SDS011;8060;50.948;3.146;2022-09-14T13:06:41;18.20;;;16.27;;
15921;SDS011;8060;50.948;3.146;2022-09-14T13:09:14;17.87;;;15.77;;
15921;SDS011;8060;50.948;3.146;2022-09-14T13:11:45;15.63;;;14.03;;
15921;SDS011;8060;50.948;3.146;2022-09-14T13:14:19;15.23;;;13.73;;
15921;SDS011;8060;50.948;3.146;2022-09-14T13:16:51;14.20;;;12.90;;
15921;SDS011;8060;50.948;3.146;2022-09-14T13:19:23;13.60;;;12.30;;
15921;SDS011;8060;50.948;3.146;2022-09-14T13:21:53;14.23;;;12.27;;
15921;SDS011;8060;50.948;3.146;2022-09-14T13:24:30;12.43;;;10.50;;
15921;SDS011;8060;50.948;3.146;2022-09-14T13:27:04;12.20;;;11.00;;
15921;SDS011;8060;50.948;3.146;2022-09-14T13:29:41;12.63;;;11.50;;
15921;SDS011;8060;50.948;3.146;2022-09-14T13:32:10;12.77;;;11.47;;
15921;SDS011;8060;50.948;3.146;2022-09-14T13:34:46;14.70;;;13.20;;
15921;SDS011;8060;50.948;3.146;2022-09-14T13:37:14;14.40;;;12.93;;
15921;SDS011;8060;50.948;3.146;2022-09-14T13:39:42;16.70;;;14.93;;
15921;SDS011;8060;50.948;3.146;2022-09-14T13:42:17;16.93;;;15.30;;
15921;SDS011;8060;50.948;3.146;2022-09-14T13:44:46;18.63;;;16.03;;
15921;SDS011;8060;50.948;3.146;2022-09-14T13:47:16;22.87;;;18.10;;
15921;SDS011;8060;50.948;3.146;2022-09-14T13:49:47;22.27;;;20.03;;
15921;SDS011;8060;50.948;3.146;2022-09-14T13:52:26;24.37;;;21.77;;
15921;SDS011;8060;50.948;3.146;2022-09-14T13:55:18;30.80;;;24.77;;
15921;SDS011;8060;50.948;3.146;2022-09-14T13:58:03;29.83;;;24.37;;
15921;SDS011;8060;50.948;3.146;2022-09-14T14:00:33;27.20;;;23.97;;
15921;SDS011;8060;50.948;3.146;2022-09-14T14:03:21;28.73;;;24.57;;
15921;SDS011;8060;50.948;3.146;2022-09-14T14:05:55;28.00;;;25.00;;
15921;SDS011;8060;50.948;3.146;2022-09-14T14:08:25;21.03;;;18.83;;
15921;SDS011;8060;50.948;3.146;2022-09-14T14:10:56;20.80;;;17.60;;
15921;SDS011;8060;50.948;3.146;2022-09-14T14:13:27;17.97;;;16.13;;
15921;SDS011;8060;50.948;3.146;2022-09-14T14:16:12;20.23;;;17.63;;
15921;SDS011;8060;50.948;3.146;2022-09-14T14:18:47;21.50;;;19.23;;
15921;SDS011;8060;50.948;3.146;2022-09-14T14:21:31;22.33;;;19.13;;
15921;SDS011;8060;50.948;3.146;2022-09-14T14:24:15;22.27;;;19.87;;
15921;SDS011;8060;50.948;3.146;2022-09-14T14:26:50;24.17;;;21.57;;
15921;SDS011;8060;50.948;3.146;2022-09-14T14:29:20;28.83;;;25.40;;
15921;SDS011;8060;50.948;3.146;2022-09-14T14:31:48;30.57;;;26.53;;
15921;SDS011;8060;50.948;3.146;2022-09-14T14:34:17;33.17;;;26.83;;
15921;SDS011;8060;50.948;3.146;2022-09-14T14:36:48;30.83;;;25.63;;
15921;SDS011;8060;50.948;3.146;2022-09-14T14:39:17;28.63;;;24.83;;
15921;SDS011;8060;50.948;3.146;2022-09-14T14:41:47;26.03;;;22.90;;
15921;SDS011;8060;50.948;3.146;2022-09-14T14:44:17;28.87;;;22.67;;
15921;SDS011;8060;50.948;3.146;2022-09-14T14:46:47;24.80;;;19.83;;
15921;SDS011;8060;50.948;3.146;2022-09-14T14:49:15;20.57;;;18.37;;
15921;SDS011;8060;50.948;3.146;2022-09-14T14:51:45;23.50;;;18.57;;
15921;SDS011;8060;50.948;3.146;2022-09-14T14:54:15;22.30;;;18.73;;
15921;SDS011;8060;50.948;3.146;2022-09-14T14:56:44;22.93;;;19.37;;
15921;SDS011;8060;50.948;3.146;2022-09-14T14:59:14;21.13;;;18.50;;
15921;SDS011;8060;50.948;3.146;2022-09-14T15:01:51;21.33;;;17.97;;
15921;SDS011;8060;50.948;3.146;2022-09-14T15:04:20;20.83;;;17.87;;
15921;SDS011;8060;50.948;3.146;2022-09-14T15:06:48;17.00;;;15.20;;
15921;SDS011;8060;50.948;3.146;2022-09-14T15:09:18;18.10;;;15.47;;
15921;SDS011;8060;50.948;3.146;2022-09-14T15:11:48;17.70;;;15.80;;
15921;SDS011;8060;50.948;3.146;2022-09-14T15:14:17;16.10;;;13.97;;
15921;SDS011;8060;50.948;3.146;2022-09-14T15:16:51;15.50;;;12.23;;
15921;SDS011;8060;50.948;3.146;2022-09-14T15:19:23;17.47;;;12.50;;
15921;SDS011;8060;50.948;3.146;2022-09-14T15:21:51;13.03;;;11.40;;
15921;SDS011;8060;50.948;3.146;2022-09-14T15:24:27;12.43;;;10.40;;
15921;SDS011;8060;50.948;3.146;2022-09-14T15:26:56;12.27;;;10.40;;
15921;SDS011;8060;50.948;3.146;2022-09-14T15:29:24;14.37;;;10.63;;
15921;SDS011;8060;50.948;3.146;2022-09-14T15:31:52;11.73;;;10.53;;
15921;SDS011;8060;50.948;3.146;2022-09-14T15:34:21;14.27;;;11.23;;
15921;SDS011;8060;50.948;3.146;2022-09-14T15:36:50;13.50;;;11.63;;
15921;SDS011;8060;50.948;3.146;2022-09-14T15:39:20;12.73;;;10.13;;
15921;SDS011;8060;50.948;3.146;2022-09-14T15:41:50;13.53;;;10.57;;
15921;SDS011;8060;50.948;3.146;2022-09-14T15:44:19;12.83;;;9.50;;
15921;SDS011;8060;50.948;3.146;2022-09-14T15:46:47;16.73;;;10.47;;
15921;SDS011;8060;50.948;3.146;2022-09-14T15:49:17;11.27;;;10.13;;
15921;SDS011;8060;50.948;3.146;2022-09-14T15:51:46;10.53;;;9.47;;
15921;SDS011;8060;50.948;3.146;2022-09-14T15:54:16;10.73;;;9.40;;
15921;SDS011;8060;50.948;3.146;2022-09-14T15:56:46;12.00;;;10.17;;
15921;SDS011;8060;50.948;3.146;2022-09-14T15:59:16;13.10;;;9.57;;
15921;SDS011;8060;50.948;3.146;2022-09-14T16:01:45;11.53;;;10.33;;
15921;SDS011;8060;50.948;3.146;2022-09-14T16:04:14;10.93;;;9.67;;
15921;SDS011;8060;50.948;3.146;2022-09-14T16:06:42;10.50;;;9.50;;
15921;SDS011;8060;50.948;3.146;2022-09-14T16:09:12;10.47;;;9.13;;
15921;SDS011;8060;50.948;3.146;2022-09-14T16:11:41;10.43;;;9.33;;
15921;SDS011;8060;50.948;3.146;2022-09-14T16:14:09;10.53;;;9.23;;
15921;SDS011;8060;50.948;3.146;2022-09-14T16:16:39;9.70;;;8.70;;
15921;SDS011;8060;50.948;3.146;2022-09-14T16:19:09;13.33;;;9.77;;
15921;SDS011;8060;50.948;3.146;2022-09-14T16:21:40;9.07;;;8.17;;
15921;SDS011;8060;50.948;3.146;2022-09-14T16:24:10;9.63;;;8.03;;
15921;SDS011;8060;50.948;3.146;2022-09-14T16:26:40;9.07;;;7.80;;
15921;SDS011;8060;50.948;3.146;2022-09-14T16:29:09;9.40;;;8.50;;
15921;SDS011;8060;50.948;3.146;2022-09-14T16:31:40;8.90;;;8.00;;
15921;SDS011;8060;50.948;3.146;2022-09-14T16:34:10;8.23;;;7.43;;
15921;SDS011;8060;50.948;3.146;2022-09-14T16:36:40;10.70;;;8.33;;
15921;SDS011;8060;50.948;3.146;2022-09-14T16:39:10;8.73;;;7.57;;
15921;SDS011;8060;50.948;3.146;2022-09-14T16:41:44;8.03;;;7.30;;
15921;SDS011;8060;50.948;3.146;2022-09-14T16:44:13;10.10;;;6.67;;
15921;SDS011;8060;50.948;3.146;2022-09-14T16:46:46;6.63;;;5.97;;
15921;SDS011;8060;50.948;3.146;2022-09-14T16:49:14;10.10;;;5.83;;
15921;SDS011;8060;50.948;3.146;2022-09-14T16:51:42;6.63;;;6.00;;
15921;SDS011;8060;50.948;3.146;2022-09-14T16:54:12;8.07;;;5.37;;
15921;SDS011;8060;50.948;3.146;2022-09-14T16:56:42;5.63;;;5.13;;
15921;SDS011;8060;50.948;3.146;2022-09-14T16:59:11;10.37;;;5.20;;
15921;SDS011;8060;50.948;3.146;2022-09-14T17:01:41;6.23;;;4.57;;
15921;SDS011;8060;50.948;3.146;2022-09-14T17:04:12;5.87;;;4.63;;
15921;SDS011;8060;50.948;3.146;2022-09-14T17:06:42;7.43;;;4.70;;
15921;SDS011;8060;50.948;3.146;2022-09-14T17:09:12;8.13;;;4.87;;
15921;SDS011;8060;50.948;3.146;2022-09-14T17:11:42;8.57;;;4.90;;
15921;SDS011;8060;50.948;3.146;2022-09-14T17:14:12;5.17;;;4.67;;
15921;SDS011;8060;50.948;3.146;2022-09-14T17:16:42;6.23;;;5.60;;
15921;SDS011;8060;50.948;3.146;2022-09-14T17:19:12;8.63;;;5.30;;
15921;SDS011;8060;50.948;3.146;2022-09-14T17:21:42;9.87;;;5.20;;
15921;SDS011;8060;50.948;3.146;2022-09-14T17:24:11;7.13;;;4.73;;
15921;SDS011;8060;50.948;3.146;2022-09-14T17:26:41;5.50;;;4.93;;
15921;SDS011;8060;50.948;3.146;2022-09-14T17:29:09;8.40;;;5.93;;
15921;SDS011;8060;50.948;3.146;2022-09-14T17:31:39;6.93;;;6.00;;
15921;SDS011;8060;50.948;3.146;2022-09-14T17:34:09;7.80;;;5.90;;
15921;SDS011;8060;50.948;3.146;2022-09-14T17:36:40;8.07;;;5.93;;
15921;SDS011;8060;50.948;3.146;2022-09-14T17:39:08;9.57;;;5.80;;
15921;SDS011;8060;50.948;3.146;2022-09-14T17:41:38;7.97;;;5.97;;
15921;SDS011;8060;50.948;3.146;2022-09-14T17:44:08;9.30;;;6.37;;
15921;SDS011;8060;50.948;3.146;2022-09-14T17:46:37;9.23;;;6.70;;
15921;SDS011;8060;50.948;3.146;2022-09-14T17:49:17;11.80;;;6.47;;
15921;SDS011;8060;50.948;3.146;2022-09-14T17:51:47;11.50;;;6.93;;
15921;SDS011;8060;50.948;3.146;2022-09-14T17:54:16;8.57;;;6.87;;
15921;SDS011;8060;50.948;3.146;2022-09-14T17:56:45;9.53;;;6.73;;
15921;SDS011;8060;50.948;3.146;2022-09-14T17:59:15;11.20;;;6.33;;
15921;SDS011;8060;50.948;3.146;2022-09-14T18:01:46;10.43;;;6.73;;
15921;SDS011;8060;50.948;3.146;2022-09-14T18:04:15;11.10;;;6.87;;
15921;SDS011;8060;50.948;3.146;2022-09-14T18:06:44;14.07;;;7.77;;
15921;SDS011;8060;50.948;3.146;2022-09-14T18:09:15;11.47;;;7.57;;
15921;SDS011;8060;50.948;3.146;2022-09-14T18:11:45;13.60;;;7.77;;
15921;SDS011;8060;50.948;3.146;2022-09-14T18:14:14;10.27;;;7.67;;
15921;SDS011;8060;50.948;3.146;2022-09-14T18:16:42;10.10;;;7.97;;
15921;SDS011;8060;50.948;3.146;2022-09-14T18:19:11;10.20;;;7.90;;
15921;SDS011;8060;50.948;3.146;2022-09-14T18:21:40;12.47;;;8.67;;
15921;SDS011;8060;50.948;3.146;2022-09-14T18:24:11;10.87;;;9.40;;
15921;SDS011;8060;50.948;3.146;2022-09-14T18:26:40;13.57;;;9.20;;
15921;SDS011;8060;50.948;3.146;2022-09-14T18:29:09;10.03;;;8.47;;
15921;SDS011;8060;50.948;3.146;2022-09-14T18:31:40;12.17;;;9.47;;
15921;SDS011;8060;50.948;3.146;2022-09-14T18:34:09;13.57;;;9.70;;
15921;SDS011;8060;50.948;3.146;2022-09-14T18:36:37;12.07;;;9.47;;
15921;SDS011;8060;50.948;3.146;2022-09-14T18:39:05;11.43;;;8.70;;
15921;SDS011;8060;50.948;3.146;2022-09-14T18:41:35;10.87;;;9.13;;
15921;SDS011;8060;50.948;3.146;2022-09-14T18:44:03;10.83;;;9.10;;
15921;SDS011;8060;50.948;3.146;2022-09-14T18:46:32;12.87;;;8.60;;
15921;SDS011;8060;50.948;3.146;2022-09-14T18:49:00;13.40;;;8.53;;
15921;SDS011;8060;50.948;3.146;2022-09-14T18:51:29;13.40;;;9.07;;
15921;SDS011;8060;50.948;3.146;2022-09-14T18:53:59;14.80;;;8.97;;
15921;SDS011;8060;50.948;3.146;2022-09-14T18:56:28;12.37;;;8.63;;
15921;SDS011;8060;50.948;3.146;2022-09-14T18:59:00;14.43;;;9.17;;
15921;SDS011;8060;50.948;3.146;2022-09-14T19:01:29;12.50;;;8.97;;
15921;SDS011;8060;50.948;3.146;2022-09-14T19:03:57;12.87;;;9.17;;
15921;SDS011;8060;50.948;3.146;2022-09-14T19:06:25;15.40;;;10.23;;
15921;SDS011;8060;50.948;3.146;2022-09-14T19:08:54;12.80;;;9.33;;
15921;SDS011;8060;50.948;3.146;2022-09-14T19:11:22;13.77;;;9.90;;
15921;SDS011;8060;50.948;3.146;2022-09-14T19:13:53;15.80;;;9.73;;
15921;SDS011;8060;50.948;3.146;2022-09-14T19:16:24;14.93;;;10.03;;
15921;SDS011;8060;50.948;3.146;2022-09-14T19:18:52;10.93;;;9.67;;
15921;SDS011;8060;50.948;3.146;2022-09-14T19:21:21;12.40;;;9.70;;
15921;SDS011;8060;50.948;3.146;2022-09-14T19:23:56;13.33;;;10.23;;
